Tenacia — ICGA — position and weather

sailwx.info

Track history (hours):
 
Tides and Currents Weather Stations Pressure Air Temp Water Temp Dewpoint Dewpoint Depression Visibility Wind Speed Wind Dir Waves Ship Positions

Tenacia

Last reported at 2017-Nov-18 11:32 UTC. Time now 2017-Nov-18 21:58 UTC.
Position N 39°26' E 002°21'.

Length 199 m; draft 6 m.

Type: Ship. MMSI: 247230200.

Date/timePositionNaut miles runAvg speedWind from/ knotsBaromVisibWave heightAir tempDewpointWater temp
2017-Nov-18 11:32N 39°26' E 002°21'019.8
2017-Nov-18 11:30N 39°26' E 002°22'918.4
2017-Nov-18 11:00N 39°27' E 002°34'714.1
2017-Nov-18 10:30N 39°34' E 002°38'0 0.0
2017-Nov-18 09:51N 39°34' E 002°38'0 0.0
2017-Nov-18 09:24N 39°34' E 002°38'0 0.0
2017-Nov-18 09:00N 39°34' E 002°38'0 0.0
2017-Nov-18 08:29N 39°34' E 002°38'0 0.0
2017-Nov-18 07:59N 39°34' E 002°38'0 0.0
2017-Nov-18 07:26N 39°34' E 002°38'0 0.0
2017-Nov-18 06:59N 39°34' E 002°38'0 0.0
2017-Nov-18 06:28N 39°34' E 002°38'0 0.0
2017-Nov-18 05:58N 39°34' E 002°38'0 0.3
2017-Nov-18 05:30N 39°34' E 002°38'815.6
2017-Nov-18 05:01N 39°27' E 002°33'6 0.4
2017-Nov-17 12:06N 39°28' E 002°25'220.0
2017-Nov-17 12:00N 39°27' E 002°27'917.3
2017-Nov-17 11:30N 39°31' E 002°37'3 5.8
2017-Nov-17 10:59N 39°34' E 002°38'0 0.0
2017-Nov-17 10:29N 39°34' E 002°38'0 0.0
2017-Nov-17 09:59N 39°34' E 002°38'0 0.0
2017-Nov-17 09:29N 39°34' E 002°38'0 0.0
2017-Nov-17 08:58N 39°34' E 002°38'0 0.0
2017-Nov-17 08:28N 39°34' E 002°38'0 0.0
2017-Nov-17 07:58N 39°34' E 002°38'0 0.0
2017-Nov-17 07:28N 39°34' E 002°38'0 0.0
2017-Nov-17 06:58N 39°34' E 002°38'0 0.0
2017-Nov-17 06:30N 39°34' E 002°38'0 0.0
2017-Nov-17 06:00N 39°34' E 002°38'1 1.9
2017-Nov-17 05:30N 39°33' E 002°39'815.7
2017-Nov-17 05:00N 39°26' E 002°33'8 0.5
2017-Nov-16 12:11N 39°29' E 002°23'420.6
2017-Nov-16 12:00N 39°27' E 002°27'918.8
2017-Nov-16 11:30N 39°31' E 002°37'2 4.3
2017-Nov-16 10:59N 39°34' E 002°38'0 0.0
2017-Nov-16 10:29N 39°34' E 002°38'0 0.0
2017-Nov-16 09:59N 39°34' E 002°38'0 0.0
2017-Nov-16 09:29N 39°34' E 002°38'0 0.0
2017-Nov-16 08:58N 39°34' E 002°38'0 0.0
2017-Nov-16 08:28N 39°34' E 002°38'0 0.0
2017-Nov-16 07:58N 39°34' E 002°38'0 0.0
2017-Nov-16 07:28N 39°34' E 002°38'0 0.0
2017-Nov-16 06:58N 39°34' E 002°38'0 0.0
2017-Nov-16 06:30N 39°34' E 002°38'0 0.0
2017-Nov-16 06:00N 39°34' E 002°38'1 1.9
2017-Nov-16 05:30N 39°33' E 002°39'713.7
2017-Nov-16 05:00N 39°27' E 002°34'8 0.5
2017-Nov-15 12:00N 39°29' E 002°24'816.5
2017-Nov-15 11:30N 39°28' E 002°34'610.6
2017-Nov-15 10:58N 39°33' E 002°38'0 0.0
2017-Nov-15 10:28N 39°33' E 002°38'0 0.0
2017-Nov-15 09:58N 39°33' E 002°38'0 0.0
2017-Nov-15 09:30N 39°33' E 002°38'0 0.0
2017-Nov-15 09:00N 39°33' E 002°38'0 0.0
2017-Nov-15 08:30N 39°33' E 002°38'0 0.0
2017-Nov-15 08:00N 39°33' E 002°38'0 0.0
2017-Nov-15 07:30N 39°33' E 002°38'0 0.0
2017-Nov-15 06:59N 39°33' E 002°38'0 0.0
2017-Nov-15 06:29N 39°33' E 002°38'0 0.0
2017-Nov-15 06:00N 39°33' E 002°38'0 0.7
2017-Nov-15 05:30N 39°33' E 002°38'714.4
2017-Nov-15 05:00N 39°27' E 002°34'8 0.4
2017-Nov-14 11:58N 39°28' E 002°25'817.8
2017-Nov-14 11:30N 39°29' E 002°35'4 8.7
2017-Nov-14 10:59N 39°33' E 002°38'0 0.0
2017-Nov-14 10:29N 39°33' E 002°38'0 0.0
2017-Nov-14 09:59N 39°33' E 002°38'0 0.0
2017-Nov-14 09:29N 39°33' E 002°38'0 0.0
2017-Nov-14 08:58N 39°33' E 002°38'0 0.0
2017-Nov-14 08:28N 39°33' E 002°38'0 0.0
2017-Nov-14 07:58N 39°33' E 002°38'0 0.0
2017-Nov-14 07:28N 39°33' E 002°38'0 0.0
2017-Nov-14 06:57N 39°33' E 002°38'0 0.0
2017-Nov-14 06:30N 39°33' E 002°38'0 0.0
2017-Nov-14 06:00N 39°33' E 002°38'4 8.0
2017-Nov-14 05:30N 39°29' E 002°36'816.9
2017-Nov-14 05:01N 39°26' E 002°26'92 3.2
2017-Nov-13 00:03N 40°54' E 001°47'220.6
2017-Nov-12 23:58N 40°55' E 001°49'1021.2
2017-Nov-12 23:30N 41°03' E 001°57'1020.5
2017-Nov-12 23:00N 41°11' E 002°06'102 4.5
2017-Nov-12 00:07N 39°29' E 002°23'220.9
2017-Nov-12 00:00N 39°28' E 002°26'815.7
2017-Nov-11 23:30N 39°29' E 002°36'4 8.9
2017-Nov-11 23:00N 39°33' E 002°38'0 0.8
2017-Nov-11 22:30N 39°33' E 002°38'0 0.0
2017-Nov-11 22:00N 39°33' E 002°38'0 0.0
2017-Nov-11 21:30N 39°33' E 002°38'0 0.0
2017-Nov-11 21:00N 39°33' E 002°38'0 0.0
2017-Nov-11 20:30N 39°33' E 002°38'0 0.0
2017-Nov-11 19:59N 39°33' E 002°38'0 0.0
2017-Nov-11 19:29N 39°33' E 002°38'0 0.0
2017-Nov-11 18:59N 39°33' E 002°38'0 0.0
2017-Nov-11 18:29N 39°33' E 002°38'0 0.0
2017-Nov-11 17:59N 39°33' E 002°38'0 0.0
2017-Nov-11 17:25N 39°33' E 002°38'0 0.0
2017-Nov-11 16:58N 39°33' E 002°38'0 0.0
2017-Nov-11 16:25N 39°33' E 002°38'0 0.0
2017-Nov-11 15:58N 39°33' E 002°38'0 0.0
2017-Nov-11 15:30N 39°33' E 002°38'0 0.0
2017-Nov-11 15:00N 39°33' E 002°38'0 0.0
2017-Nov-11 14:30N 39°33' E 002°38'0 0.0
2017-Nov-11 14:00N 39°33' E 002°38'0 0.0
2017-Nov-11 13:30N 39°33' E 002°38'0 0.0
2017-Nov-11 12:59N 39°33' E 002°38'0 0.0
2017-Nov-11 12:29N 39°33' E 002°38'0 0.0
2017-Nov-11 11:59N 39°33' E 002°38'0 0.0
2017-Nov-11 11:29N 39°33' E 002°38'0 0.0
2017-Nov-11 10:58N 39°33' E 002°38'0 0.0
2017-Nov-11 10:28N 39°33' E 002°38'0 0.0
2017-Nov-11 09:58N 39°33' E 002°38'0 0.0
2017-Nov-11 09:28N 39°33' E 002°38'0 0.0
2017-Nov-11 08:58N 39°33' E 002°38'0 0.0
2017-Nov-11 08:30N 39°33' E 002°38'0 0.0
2017-Nov-11 08:00N 39°33' E 002°38'0 0.0
2017-Nov-11 07:30N 39°33' E 002°38'0 0.0
2017-Nov-11 07:00N 39°33' E 002°38'0 0.0
2017-Nov-11 06:30N 39°33' E 002°38'0 0.0
2017-Nov-11 05:59N 39°33' E 002°38'0 0.8
2017-Nov-11 05:30N 39°33' E 002°38'815.0
2017-Nov-11 05:00N 39°27' E 002°33'7 0.4
2017-Nov-10 11:56N 39°28' E 002°25'717.1
2017-Nov-10 11:30N 39°28' E 002°34'510.6
2017-Nov-10 11:00N 39°33' E 002°38'0 0.1
2017-Nov-10 10:30N 39°33' E 002°38'0 0.0
2017-Nov-10 10:00N 39°33' E 002°38'0 0.0
2017-Nov-10 09:30N 39°33' E 002°38'0 0.0
2017-Nov-10 09:00N 39°33' E 002°38'0 0.0
2017-Nov-10 08:30N 39°33' E 002°38'0 0.0
2017-Nov-10 08:00N 39°33' E 002°38'0 0.0
2017-Nov-10 07:30N 39°33' E 002°38'0 0.0
2017-Nov-10 07:00N 39°33' E 002°38'0 0.0
2017-Nov-10 06:30N 39°33' E 002°38'0 0.0
2017-Nov-10 06:00N 39°33' E 002°38'0 0.8
2017-Nov-10 05:30N 39°33' E 002°38'714.4
2017-Nov-10 05:00N 39°27' E 002°33'6 0.4
2017-Nov-09 11:55N 39°28' E 002°25'717.3
2017-Nov-09 11:30N 39°28' E 002°34'510.6
2017-Nov-09 11:00N 39°33' E 002°38'0 0.0
2017-Nov-09 10:29N 39°33' E 002°38'0 0.0
2017-Nov-09 09:59N 39°33' E 002°38'0 0.0
2017-Nov-09 09:29N 39°33' E 002°38'0 0.0
2017-Nov-09 08:59N 39°33' E 002°38'0 0.0
2017-Nov-09 08:29N 39°33' E 002°38'0 0.0
2017-Nov-09 07:58N 39°33' E 002°38'0 0.0
2017-Nov-09 07:28N 39°33' E 002°38'0 0.0
2017-Nov-09 06:58N 39°33' E 002°38'0 0.0
2017-Nov-09 06:25N 39°33' E 002°38'0 0.0
2017-Nov-09 05:58N 39°33' E 002°38'0 0.8
2017-Nov-09 05:31N 39°33' E 002°38'714.4
2017-Nov-09 05:00N 39°27' E 002°33'8 0.5
2017-Nov-08 12:03N 39°29' E 002°23'119.7
2017-Nov-08 12:00N 39°29' E 002°24'  
Track history (hours):
 
Tides and Currents Weather Stations Pressure Air Temp Water Temp Dewpoint Dewpoint Depression Visibility Wind Speed Wind Dir Waves Ship Positions

Tenacia

Last reported at 2017-Nov-18 11:32 UTC. Time now 2017-Nov-18 21:58 UTC.
Position N 39°26' E 002°21'.

Length 199 m; draft 6 m.

Type: Ship. MMSI: 247230200.

Date/timePositionNaut miles runAvg speedWind from/ knotsBaromVisibWave heightAir tempDewpointWater temp
2017-Nov-18 11:32N 39°26' E 002°21'019.8
2017-Nov-18 11:30N 39°26' E 002°22'918.4
2017-Nov-18 11:00N 39°27' E 002°34'714.1
2017-Nov-18 10:30N 39°34' E 002°38'0 0.0
2017-Nov-18 09:51N 39°34' E 002°38'0 0.0
2017-Nov-18 09:24N 39°34' E 002°38'0 0.0
2017-Nov-18 09:00N 39°34' E 002°38'0 0.0
2017-Nov-18 08:29N 39°34' E 002°38'0 0.0
2017-Nov-18 07:59N 39°34' E 002°38'0 0.0
2017-Nov-18 07:26N 39°34' E 002°38'0 0.0
2017-Nov-18 06:59N 39°34' E 002°38'0 0.0
2017-Nov-18 06:28N 39°34' E 002°38'0 0.0
2017-Nov-18 05:58N 39°34' E 002°38'0 0.3
2017-Nov-18 05:30N 39°34' E 002°38'815.6
2017-Nov-18 05:01N 39°27' E 002°33'6 0.4
2017-Nov-17 12:06N 39°28' E 002°25'220.0
2017-Nov-17 12:00N 39°27' E 002°27'917.3
2017-Nov-17 11:30N 39°31' E 002°37'3 5.8
2017-Nov-17 10:59N 39°34' E 002°38'0 0.0
2017-Nov-17 10:29N 39°34' E 002°38'0 0.0
2017-Nov-17 09:59N 39°34' E 002°38'0 0.0
2017-Nov-17 09:29N 39°34' E 002°38'0 0.0
2017-Nov-17 08:58N 39°34' E 002°38'0 0.0
2017-Nov-17 08:28N 39°34' E 002°38'0 0.0
2017-Nov-17 07:58N 39°34' E 002°38'0 0.0
2017-Nov-17 07:28N 39°34' E 002°38'0 0.0
2017-Nov-17 06:58N 39°34' E 002°38'0 0.0
2017-Nov-17 06:30N 39°34' E 002°38'0 0.0
2017-Nov-17 06:00N 39°34' E 002°38'1 1.9
2017-Nov-17 05:30N 39°33' E 002°39'815.7
2017-Nov-17 05:00N 39°26' E 002°33'8 0.5
2017-Nov-16 12:11N 39°29' E 002°23'420.6
2017-Nov-16 12:00N 39°27' E 002°27'918.8
2017-Nov-16 11:30N 39°31' E 002°37'2 4.3
2017-Nov-16 10:59N 39°34' E 002°38'0 0.0
2017-Nov-16 10:29N 39°34' E 002°38'0 0.0
2017-Nov-16 09:59N 39°34' E 002°38'0 0.0
2017-Nov-16 09:29N 39°34' E 002°38'0 0.0
2017-Nov-16 08:58N 39°34' E 002°38'0 0.0
2017-Nov-16 08:28N 39°34' E 002°38'0 0.0
2017-Nov-16 07:58N 39°34' E 002°38'0 0.0
2017-Nov-16 07:28N 39°34' E 002°38'0 0.0
2017-Nov-16 06:58N 39°34' E 002°38'0 0.0
2017-Nov-16 06:30N 39°34' E 002°38'0 0.0
2017-Nov-16 06:00N 39°34' E 002°38'1 1.9
2017-Nov-16 05:30N 39°33' E 002°39'713.7
2017-Nov-16 05:00N 39°27' E 002°34'8 0.5
2017-Nov-15 12:00N 39°29' E 002°24'816.5
2017-Nov-15 11:30N 39°28' E 002°34'610.6
2017-Nov-15 10:58N 39°33' E 002°38'0 0.0
2017-Nov-15 10:28N 39°33' E 002°38'0 0.0
2017-Nov-15 09:58N 39°33' E 002°38'0 0.0
2017-Nov-15 09:30N 39°33' E 002°38'0 0.0
2017-Nov-15 09:00N 39°33' E 002°38'0 0.0
2017-Nov-15 08:30N 39°33' E 002°38'0 0.0
2017-Nov-15 08:00N 39°33' E 002°38'0 0.0
2017-Nov-15 07:30N 39°33' E 002°38'0 0.0
2017-Nov-15 06:59N 39°33' E 002°38'0 0.0
2017-Nov-15 06:29N 39°33' E 002°38'0 0.0
2017-Nov-15 06:00N 39°33' E 002°38'0 0.7
2017-Nov-15 05:30N 39°33' E 002°38'714.4
2017-Nov-15 05:00N 39°27' E 002°34'8 0.4
2017-Nov-14 11:58N 39°28' E 002°25'817.8
2017-Nov-14 11:30N 39°29' E 002°35'4 8.7
2017-Nov-14 10:59N 39°33' E 002°38'0 0.0
2017-Nov-14 10:29N 39°33' E 002°38'0 0.0
2017-Nov-14 09:59N 39°33' E 002°38'0 0.0
2017-Nov-14 09:29N 39°33' E 002°38'0 0.0
2017-Nov-14 08:58N 39°33' E 002°38'0 0.0
2017-Nov-14 08:28N 39°33' E 002°38'0 0.0
2017-Nov-14 07:58N 39°33' E 002°38'0 0.0
2017-Nov-14 07:28N 39°33' E 002°38'0 0.0
2017-Nov-14 06:57N 39°33' E 002°38'0 0.0
2017-Nov-14 06:30N 39°33' E 002°38'0 0.0
2017-Nov-14 06:00N 39°33' E 002°38'4 8.0
2017-Nov-14 05:30N 39°29' E 002°36'816.9
2017-Nov-14 05:01N 39°26' E 002°26'92 3.2
2017-Nov-13 00:03N 40°54' E 001°47'220.6
2017-Nov-12 23:58N 40°55' E 001°49'1021.2
2017-Nov-12 23:30N 41°03' E 001°57'1020.5
2017-Nov-12 23:00N 41°11' E 002°06'102 4.5
2017-Nov-12 00:07N 39°29' E 002°23'220.9
2017-Nov-12 00:00N 39°28' E 002°26'815.7
2017-Nov-11 23:30N 39°29' E 002°36'4 8.9
2017-Nov-11 23:00N 39°33' E 002°38'0 0.8
2017-Nov-11 22:30N 39°33' E 002°38'0 0.0
2017-Nov-11 22:00N 39°33' E 002°38'0 0.0
2017-Nov-11 21:30N 39°33' E 002°38'0 0.0
2017-Nov-11 21:00N 39°33' E 002°38'0 0.0
2017-Nov-11 20:30N 39°33' E 002°38'0 0.0
2017-Nov-11 19:59N 39°33' E 002°38'0 0.0
2017-Nov-11 19:29N 39°33' E 002°38'0 0.0
2017-Nov-11 18:59N 39°33' E 002°38'0 0.0
2017-Nov-11 18:29N 39°33' E 002°38'0 0.0
2017-Nov-11 17:59N 39°33' E 002°38'0 0.0
2017-Nov-11 17:25N 39°33' E 002°38'0 0.0
2017-Nov-11 16:58N 39°33' E 002°38'0 0.0
2017-Nov-11 16:25N 39°33' E 002°38'0 0.0
2017-Nov-11 15:58N 39°33' E 002°38'0 0.0
2017-Nov-11 15:30N 39°33' E 002°38'0 0.0
2017-Nov-11 15:00N 39°33' E 002°38'0 0.0
2017-Nov-11 14:30N 39°33' E 002°38'0 0.0
2017-Nov-11 14:00N 39°33' E 002°38'0 0.0
2017-Nov-11 13:30N 39°33' E 002°38'0 0.0
2017-Nov-11 12:59N 39°33' E 002°38'0 0.0
2017-Nov-11 12:29N 39°33' E 002°38'0 0.0
2017-Nov-11 11:59N 39°33' E 002°38'0 0.0
2017-Nov-11 11:29N 39°33' E 002°38'0 0.0
2017-Nov-11 10:58N 39°33' E 002°38'0 0.0
2017-Nov-11 10:28N 39°33' E 002°38'0 0.0
2017-Nov-11 09:58N 39°33' E 002°38'0 0.0
2017-Nov-11 09:28N 39°33' E 002°38'0 0.0
2017-Nov-11 08:58N 39°33' E 002°38'0 0.0
2017-Nov-11 08:30N 39°33' E 002°38'0 0.0
2017-Nov-11 08:00N 39°33' E 002°38'0 0.0
2017-Nov-11 07:30N 39°33' E 002°38'0 0.0
2017-Nov-11 07:00N 39°33' E 002°38'0 0.0
2017-Nov-11 06:30N 39°33' E 002°38'0 0.0
2017-Nov-11 05:59N 39°33' E 002°38'0 0.8
2017-Nov-11 05:30N 39°33' E 002°38'815.0
2017-Nov-11 05:00N 39°27' E 002°33'7 0.4
2017-Nov-10 11:56N 39°28' E 002°25'717.1
2017-Nov-10 11:30N 39°28' E 002°34'510.6
2017-Nov-10 11:00N 39°33' E 002°38'0 0.1
2017-Nov-10 10:30N 39°33' E 002°38'0 0.0
2017-Nov-10 10:00N 39°33' E 002°38'0 0.0
2017-Nov-10 09:30N 39°33' E 002°38'0 0.0
2017-Nov-10 09:00N 39°33' E 002°38'0 0.0
2017-Nov-10 08:30N 39°33' E 002°38'0 0.0
2017-Nov-10 08:00N 39°33' E 002°38'0 0.0
2017-Nov-10 07:30N 39°33' E 002°38'0 0.0
2017-Nov-10 07:00N 39°33' E 002°38'0 0.0
2017-Nov-10 06:30N 39°33' E 002°38'0 0.0
2017-Nov-10 06:00N 39°33' E 002°38'0 0.8
2017-Nov-10 05:30N 39°33' E 002°38'714.4
2017-Nov-10 05:00N 39°27' E 002°33'6 0.4
2017-Nov-09 11:55N 39°28' E 002°25'717.3
2017-Nov-09 11:30N 39°28' E 002°34'510.6
2017-Nov-09 11:00N 39°33' E 002°38'0 0.0
2017-Nov-09 10:29N 39°33' E 002°38'0 0.0
2017-Nov-09 09:59N 39°33' E 002°38'0 0.0
2017-Nov-09 09:29N 39°33' E 002°38'0 0.0
2017-Nov-09 08:59N 39°33' E 002°38'0 0.0
2017-Nov-09 08:29N 39°33' E 002°38'0 0.0
2017-Nov-09 07:58N 39°33' E 002°38'0 0.0
2017-Nov-09 07:28N 39°33' E 002°38'0 0.0
2017-Nov-09 06:58N 39°33' E 002°38'0 0.0
2017-Nov-09 06:25N 39°33' E 002°38'0 0.0
2017-Nov-09 05:58N 39°33' E 002°38'0 0.8
2017-Nov-09 05:31N 39°33' E 002°38'714.4
2017-Nov-09 05:00N 39°27' E 002°33'8 0.5
2017-Nov-08 12:03N 39°29' E 002°23'119.7
2017-Nov-08 12:00N 39°29' E 002°24'  

Dump ship's entire track history